createdAt,value
2017-12-22T16:05:46.743Z,95150.57
2017-12-22T16:08:14.332Z,95156.30
2017-12-22T16:10:41.892Z,95158.05
2017-12-22T16:13:09.449Z,95160.83
2017-12-22T16:15:36.973Z,95157.66
2017-12-22T16:18:04.532Z,95165.21
2017-12-22T16:20:32.037Z,95167.94
2017-12-22T16:22:59.559Z,95178.72
2017-12-22T16:25:27.047Z,95176.31
2017-12-22T16:27:54.611Z,95173.02
2017-12-22T16:30:22.138Z,95172.72
2017-12-22T16:32:49.780Z,95171.41
2017-12-22T16:35:17.344Z,95167.20
2017-12-22T16:37:44.866Z,95171.83
2017-12-22T16:40:12.419Z,95171.03
2017-12-22T16:42:39.986Z,95178.55
2017-12-22T16:45:07.575Z,95174.48
2017-12-22T16:47:35.137Z,95178.60
2017-12-22T16:50:02.633Z,95176.86
2017-12-22T16:52:30.178Z,95182.31
2017-12-22T16:54:57.755Z,95176.66
2017-12-22T16:57:25.324Z,95179.33
2017-12-22T16:59:52.858Z,95179.22
2017-12-22T17:02:20.380Z,95182.23
2017-12-22T17:04:47.942Z,95178.75
2017-12-22T17:07:15.670Z,95184.59
2017-12-22T17:09:43.178Z,95170.31
2017-12-22T17:12:10.732Z,95172.71
2017-12-22T17:14:38.285Z,95167.68
2017-12-22T17:17:05.851Z,95169.28
2017-12-22T17:19:33.343Z,95170.27
2017-12-22T17:22:00.954Z,95173.77
2017-12-22T17:24:28.523Z,95165.91
2017-12-22T17:26:56.029Z,95170.56
2017-12-22T17:29:23.623Z,95173.47
2017-12-22T17:31:51.186Z,95174.63
2017-12-22T17:34:18.743Z,95174.95
2017-12-22T17:36:46.338Z,95173.23
2017-12-22T17:39:13.891Z,95169.73
2017-12-22T17:41:41.373Z,95170.48
2017-12-22T17:44:08.903Z,95184.89
2017-12-22T17:46:36.468Z,95182.66
2017-12-22T17:49:04.031Z,95181.54
2017-12-22T17:51:31.552Z,95181.92
2017-12-22T17:53:59.112Z,95178.81
2017-12-22T17:56:26.613Z,95171.45
2017-12-22T17:58:54.206Z,95175.39
2017-12-22T18:01:21.695Z,95169.34
2017-12-22T18:03:49.185Z,95174.27
2017-12-22T18:06:16.843Z,95174.69
2017-12-22T18:08:44.359Z,95177.30
2017-12-22T18:11:11.866Z,95177.44
2017-12-22T18:13:39.388Z,95176.94
2017-12-22T18:16:06.878Z,95178.90
2017-12-22T18:18:34.436Z,95177.59
2017-12-22T18:21:02.052Z,95177.39
2017-12-22T18:23:29.549Z,95172.73
2017-12-22T18:25:57.054Z,95179.91
2017-12-22T18:28:24.644Z,95184.68
2017-12-22T18:30:52.130Z,95184.17
2017-12-22T18:33:19.692Z,95185.06
2017-12-22T18:35:47.220Z,95179.25
2017-12-22T18:38:14.706Z,95181.33
2017-12-22T18:40:42.213Z,95182.09
2017-12-22T18:43:09.810Z,95181.98
2017-12-22T18:45:37.297Z,95185.92
2017-12-22T18:48:04.790Z,95184.17
2017-12-22T18:50:32.305Z,95184.20
2017-12-22T18:52:59.901Z,95183.14
2017-12-22T18:55:27.452Z,95190.64
2017-12-22T18:57:54.987Z,95172.73
2017-12-22T19:00:22.487Z,95184.63
2017-12-22T19:02:50.050Z,95184.71
2017-12-22T19:05:17.574Z,95179.20
2017-12-22T19:07:45.054Z,95188.42
2017-12-22T19:10:12.545Z,95179.43
2017-12-22T19:12:40.072Z,95185.42
2017-12-22T19:15:07.573Z,95185.42
2017-12-22T19:20:17.764Z,95176.85
2017-12-22T19:22:45.333Z,95180.73
2017-12-22T19:25:12.888Z,95179.25
2017-12-22T19:27:40.491Z,95175.31
2017-12-22T19:30:07.978Z,95176.17
2017-12-22T19:32:35.527Z,95171.19
2017-12-22T19:35:03.054Z,95166.83
2017-12-22T19:37:30.602Z,95160.00
2017-12-22T19:39:58.160Z,95159.14
2017-12-22T19:42:25.688Z,95166.02
2017-12-22T19:44:53.178Z,95166.91
2017-12-22T19:47:20.666Z,95164.36
2017-12-22T19:49:48.229Z,95160.77
2017-12-22T19:52:15.716Z,95163.14
2017-12-22T19:54:43.304Z,95163.77
2017-12-22T19:57:10.805Z,95161.37
2017-12-22T19:59:38.289Z,95161.58
2017-12-22T20:02:05.884Z,95162.95
2017-12-22T20:04:33.438Z,95153.63
2017-12-22T20:07:00.923Z,95157.75
2017-12-22T20:09:28.454Z,95158.79
2017-12-22T20:11:56.007Z,95153.66
2017-12-22T20:14:23.559Z,95157.22
2017-12-22T20:16:51.143Z,95153.60
2017-12-22T20:19:18.625Z,95156.24
2017-12-22T20:21:46.110Z,95154.22
2017-12-22T20:24:13.629Z,95148.63
2017-12-22T20:26:41.189Z,95152.42
2017-12-22T20:29:08.687Z,95150.73
2017-12-22T20:31:36.200Z,95156.45
2017-12-22T20:34:03.767Z,95153.57
2017-12-22T20:36:31.325Z,95151.05
2017-12-22T20:38:58.919Z,95148.56
2017-12-22T20:41:26.414Z,95154.22
2017-12-22T20:43:53.922Z,95154.84
2017-12-22T20:46:21.444Z,95156.27
2017-12-22T20:48:48.934Z,95164.37
2017-12-22T20:51:16.425Z,95160.22
2017-12-22T20:53:43.959Z,95150.81
2017-12-22T20:56:11.438Z,95158.91
2017-12-22T20:58:38.990Z,95151.67
2017-12-22T21:01:06.502Z,95149.86
2017-12-22T21:03:34.010Z,95149.22
2017-12-22T21:06:01.525Z,95143.78
2017-12-22T21:08:29.049Z,95147.44
2017-12-22T21:10:56.534Z,95147.02
2017-12-22T21:13:24.047Z,95151.67
2017-12-22T21:15:51.644Z,95149.12
2017-12-22T21:18:19.203Z,95148.27
2017-12-22T21:20:46.775Z,95145.56
2017-12-22T21:23:14.289Z,95147.16
2017-12-22T21:25:41.844Z,95137.64
2017-12-22T21:28:09.433Z,95140.61
2017-12-22T21:30:36.982Z,95137.76
2017-12-22T21:33:04.465Z,95137.55
2017-12-22T21:35:32.024Z,95131.42
2017-12-22T21:37:59.606Z,95132.78
2017-12-22T21:40:27.190Z,95131.16
2017-12-22T21:42:54.687Z,95127.23
2017-12-22T21:45:22.201Z,95132.93
2017-12-22T21:47:49.698Z,95133.58
2017-12-22T21:50:17.195Z,95120.88
2017-12-22T21:52:44.779Z,95117.82
2017-12-22T21:55:12.311Z,95119.12
2017-12-22T21:57:39.844Z,95112.42
2017-12-22T22:00:07.368Z,95112.22
2017-12-22T22:02:34.869Z,95111.19
2017-12-22T22:05:02.430Z,95101.58
2017-12-22T22:07:29.978Z,95100.34
2017-12-22T22:09:57.474Z,95092.24
2017-12-22T22:12:24.957Z,95094.02
2017-12-22T22:14:52.553Z,95095.97
2017-12-22T22:17:20.050Z,95093.92
2017-12-22T22:19:47.538Z,95086.42
2017-12-22T22:22:15.137Z,95089.31
2017-12-22T22:24:42.627Z,95078.48
2017-12-22T22:27:10.175Z,95083.30
2017-12-22T22:29:37.760Z,95079.56
2017-12-22T22:32:05.326Z,95081.28
2017-12-22T22:34:32.822Z,95078.81
2017-12-22T22:37:00.412Z,95075.80
2017-12-22T22:39:27.967Z,95071.98
2017-12-22T22:41:55.455Z,95076.28
2017-12-22T22:44:23.035Z,95071.88
2017-12-22T22:46:50.592Z,95075.64
2017-12-22T22:49:18.134Z,95086.88
2017-12-22T22:51:45.615Z,95086.91
2017-12-22T22:54:13.168Z,95091.27
2017-12-22T22:56:40.670Z,95087.74
2017-12-22T22:59:08.195Z,95085.70
2017-12-22T23:01:35.686Z,95083.50
2017-12-22T23:04:03.178Z,95087.42
2017-12-22T23:06:30.777Z,95088.05
2017-12-22T23:08:58.306Z,95085.73
2017-12-22T23:11:25.859Z,95082.59
2017-12-22T23:13:53.460Z,95085.64
2017-12-22T23:16:21.021Z,95091.72
2017-12-22T23:18:48.608Z,95087.69
2017-12-22T23:21:16.127Z,95095.02
2017-12-22T23:23:43.634Z,95087.90
2017-12-22T23:26:11.184Z,95088.34
2017-12-22T23:28:38.781Z,95097.59
2017-12-22T23:31:06.341Z,95100.05
2017-12-22T23:33:33.833Z,95095.08
2017-12-22T23:36:01.415Z,95092.41
2017-12-22T23:38:28.968Z,95089.98
2017-12-22T23:40:56.459Z,95077.67
2017-12-22T23:43:24.071Z,95080.81
2017-12-22T23:45:51.620Z,95080.61
2017-12-22T23:48:19.175Z,95085.35
2017-12-22T23:50:46.708Z,95086.19
2017-12-22T23:53:14.191Z,95087.37
2017-12-22T23:55:41.678Z,95084.08
2017-12-22T23:58:09.255Z,95082.86
